Time;durP1;ratioP1;P1;durP2;ratioP2;P2;SDS_P1;SDS_P2;PMS_P1;PMS_P2;Temp;Humidity;BMP_temperature;BMP_pressure;BME280_temperature;BME280_humidity;BME280_pressure;Samples;Min_cycle;Max_cycle;Signal;HPM_P1;HPM_P2
2022/11/01 00:00:59;;;;;;;38.00;28.20;;;11.20;99.90;;;;;;2073476;28;20124;-75
2022/11/01 00:02:00;;;;;;;39.70;28.90;;;11.20;99.90;;;;;;2074060;28;20037;-76
2022/11/01 00:03:01;;;;;;;39.60;28.65;;;11.20;99.90;;;;;;2081936;28;20099;-75
2022/11/01 00:04:01;;;;;;;38.67;28.02;;;11.20;99.90;;;;;;2082019;28;20092;-75
2022/11/01 00:05:02;;;;;;;38.83;27.77;;;11.20;99.90;;;;;;2073966;28;20633;-75
2022/11/01 00:06:03;;;;;;;38.13;28.25;;;11.20;99.90;;;;;;2073493;28;20048;-75
2022/11/01 00:07:04;;;;;;;38.05;27.92;;;11.10;99.90;;;;;;2081591;28;20056;-75
2022/11/01 00:08:05;;;;;;;37.30;27.77;;;11.10;99.90;;;;;;2081240;28;20030;-76
2022/11/01 00:09:06;;;;;;;38.78;28.08;;;11.10;99.90;;;;;;2073218;28;20025;-74
2022/11/01 00:10:08;;;;;;;39.65;28.75;;;11.10;99.90;;;;;;2072727;28;20439;-75
2022/11/01 00:11:13;;;;;;;40.85;29.90;;;11.10;99.90;;;;;;2072815;28;20111;-75
2022/11/01 00:12:14;;;;;;;42.35;30.80;;;11.10;99.90;;;;;;2072862;28;20041;-76
2022/11/01 00:13:15;;;;;;;46.05;33.45;;;11.10;99.90;;;;;;2073806;28;20133;-74
2022/11/01 00:14:17;;;;;;;45.30;32.80;;;11.10;99.90;;;;;;2073409;28;20496;-77
2022/11/01 00:15:18;;;;;;;41.15;31.27;;;11.10;99.90;;;;;;2080977;28;20033;-76
2022/11/01 00:16:19;;;;;;;45.88;31.48;;;11.10;99.90;;;;;;2080818;28;20033;-75
2022/11/01 00:17:20;;;;;;;43.13;31.60;;;11.10;99.90;;;;;;2073069;28;20026;-76
2022/11/01 00:18:20;;;;;;;44.45;32.45;;;11.10;99.90;;;;;;2080738;28;20686;-75
2022/11/01 00:19:21;;;;;;;43.33;31.63;;;11.10;99.90;;;;;;2080542;28;20471;-75
2022/11/01 00:20:22;;;;;;;43.53;31.20;;;11.10;99.90;;;;;;2072146;28;20018;-74
2022/11/01 00:21:23;;;;;;;43.15;31.73;;;11.10;99.90;;;;;;2073843;28;20030;-75
2022/11/01 00:22:25;;;;;;;46.05;32.50;;;11.10;99.90;;;;;;2073661;28;20064;-76
2022/11/01 00:23:25;;;;;;;45.15;31.90;;;11.10;99.90;;;;;;2073246;28;20034;-75
2022/11/01 00:24:26;;;;;;;43.28;30.60;;;11.10;99.90;;;;;;2073786;28;20017;-75
2022/11/01 00:25:27;;;;;;;42.03;31.13;;;11.00;99.90;;;;;;2066363;28;20026;-76
2022/11/01 00:26:27;;;;;;;43.00;31.90;;;11.00;99.90;;;;;;2074666;28;20188;-75
2022/11/01 00:27:28;;;;;;;42.78;30.63;;;11.00;99.90;;;;;;2082942;28;20025;-76
2022/11/01 00:28:30;;;;;;;40.67;29.38;;;11.00;99.90;;;;;;2082805;28;20025;-78
2022/11/01 00:29:31;;;;;;;48.28;31.05;;;11.00;99.90;;;;;;2081726;28;20037;-75
2022/11/01 00:30:35;;;;;;;43.30;30.95;;;11.00;99.90;;;;;;2073281;28;20085;-76
2022/11/01 00:31:35;;;;;;;43.13;31.13;;;11.00;99.90;;;;;;2066037;28;20057;-75
2022/11/01 00:32:36;;;;;;;46.15;31.83;;;11.00;99.90;;;;;;2081481;28;20472;-75
2022/11/01 00:33:38;;;;;;;42.47;30.60;;;11.00;99.90;;;;;;2073663;28;20101;-76
2022/11/01 00:34:38;;;;;;;44.50;30.73;;;10.90;99.90;;;;;;2073565;28;20065;-75
2022/11/01 00:35:39;;;;;;;43.17;31.65;;;11.00;99.90;;;;;;2081171;28;20037;-74
2022/11/01 00:36:40;;;;;;;43.10;30.90;;;10.90;99.90;;;;;;2081426;28;20029;-75
2022/11/01 00:37:40;;;;;;;46.85;32.05;;;10.90;99.90;;;;;;2081161;28;20029;-75
2022/11/01 00:38:41;;;;;;;43.63;31.50;;;10.90;99.90;;;;;;2081548;28;20530;-75
2022/11/01 00:39:42;;;;;;;44.05;32.30;;;10.90;99.90;;;;;;2073097;28;20046;-74
2022/11/01 00:40:43;;;;;;;45.67;32.05;;;10.90;99.90;;;;;;2072597;28;20034;-74
2022/11/01 00:41:44;;;;;;;47.97;32.33;;;10.90;99.90;;;;;;2073604;28;20511;-74
2022/11/01 00:42:45;;;;;;;45.45;32.33;;;10.90;99.90;;;;;;2073910;28;20038;-74
2022/11/01 00:43:45;;;;;;;45.33;32.10;;;10.90;99.90;;;;;;2073910;28;20033;-75
2022/11/01 00:44:46;;;;;;;46.05;32.65;;;10.90;99.90;;;;;;2073313;28;20563;-76
2022/11/01 00:45:46;;;;;;;48.42;34.03;;;10.80;99.90;;;;;;2073942;28;20053;-75
2022/11/01 00:46:47;;;;;;;46.92;33.58;;;10.80;99.90;;;;;;2073621;28;20100;-75
2022/11/01 00:47:48;;;;;;;48.00;33.45;;;10.80;99.90;;;;;;2072802;28;20089;-76
2022/11/01 00:48:48;;;;;;;50.03;33.92;;;10.80;99.90;;;;;;2072493;28;20551;-75
2022/11/01 00:49:49;;;;;;;47.63;33.92;;;10.80;99.90;;;;;;2073268;28;20122;-75
2022/11/01 00:50:50;;;;;;;50.45;34.67;;;10.80;99.90;;;;;;2080988;28;20049;-75
2022/11/01 00:51:51;;;;;;;53.05;36.97;;;10.80;99.90;;;;;;2081051;28;20018;-75
2022/11/01 00:52:51;;;;;;;53.22;36.33;;;10.80;99.90;;;;;;2073451;28;20041;-75
2022/11/01 00:53:52;;;;;;;50.78;35.88;;;10.80;99.90;;;;;;2073142;28;20047;-75
2022/11/01 00:54:53;;;;;;;48.65;35.10;;;10.80;99.90;;;;;;2064513;28;20457;-75
2022/11/01 00:56:05;;;;;;;51.47;34.92;;;10.80;99.90;;;;;;2072616;28;20063;-75
2022/11/01 00:57:06;;;;;;;47.20;33.55;;;10.70;99.90;;;;;;2064806;28;20027;-75
2022/11/01 00:58:07;;;;;;;47.40;33.63;;;10.70;99.90;;;;;;2064895;28;20397;-74
2022/11/01 00:59:07;;;;;;;43.85;31.63;;;10.70;99.90;;;;;;2073583;28;20408;-76
2022/11/01 01:00:10;;;;;;;42.97;31.85;;;10.70;99.90;;;;;;2073642;28;20101;-76
2022/11/01 01:01:10;;;;;;;42.92;30.98;;;10.70;99.90;;;;;;2072720;28;20072;-75
2022/11/01 01:02:11;;;;;;;41.38;30.63;;;10.60;99.90;;;;;;2072842;28;20033;-75
2022/11/01 01:03:11;;;;;;;44.10;31.35;;;10.60;99.90;;;;;;2072702;28;20034;-76
2022/11/01 01:04:12;;;;;;;41.83;30.15;;;10.60;99.90;;;;;;2064600;28;20093;-75
2022/11/01 01:05:13;;;;;;;40.58;29.52;;;10.60;99.90;;;;;;2072977;28;20033;-74
2022/11/01 01:06:14;;;;;;;43.80;31.00;;;10.60;99.90;;;;;;2073829;28;20030;-75
2022/11/01 01:07:15;;;;;;;41.78;30.15;;;10.60;99.90;;;;;;2073260;28;20097;-76
2022/11/01 01:08:16;;;;;;;42.58;30.02;;;10.50;99.90;;;;;;2073205;28;20034;-76
2022/11/01 01:09:17;;;;;;;40.78;29.63;;;10.50;99.90;;;;;;2081057;28;20034;-75
2022/11/01 01:10:18;;;;;;;44.17;30.73;;;10.50;99.90;;;;;;2081321;28;20110;-74
2022/11/01 01:11:18;;;;;;;42.75;30.17;;;10.50;99.90;;;;;;2073102;28;20029;-76
2022/11/01 01:12:19;;;;;;;43.13;30.52;;;10.50;99.90;;;;;;2072445;28;20073;-73
2022/11/01 01:13:20;;;;;;;42.72;30.48;;;10.40;99.90;;;;;;2072755;28;20030;-76
2022/11/01 01:14:21;;;;;;;43.53;30.80;;;10.40;99.90;;;;;;2080641;28;20535;-75
2022/11/01 01:15:22;;;;;;;42.00;30.25;;;10.40;99.90;;;;;;2072442;28;20088;-76
2022/11/01 01:16:22;;;;;;;42.08;30.40;;;10.50;99.90;;;;;;2072694;28;20116;-76
2022/11/01 01:17:23;;;;;;;40.60;29.35;;;10.40;99.90;;;;;;2072400;28;20130;-76
2022/11/01 01:18:24;;;;;;;40.45;29.63;;;10.40;99.90;;;;;;2064489;28;20077;-75
2022/11/01 01:19:25;;;;;;;39.63;28.92;;;10.40;99.90;;;;;;2072609;28;20038;-77
2022/11/01 01:20:25;;;;;;;40.83;30.05;;;10.40;99.90;;;;;;2072999;28;20057;-75
2022/11/01 01:21:26;;;;;;;42.08;30.33;;;10.40;99.90;;;;;;2073500;28;20487;-76
2022/11/01 01:22:27;;;;;;;39.15;29.60;;;10.40;99.90;;;;;;2073080;28;20384;-75
2022/11/01 01:23:28;;;;;;;41.83;29.98;;;10.40;99.90;;;;;;2081127;28;20025;-75
2022/11/01 01:24:30;;;;;;;42.78;30.40;;;10.30;99.90;;;;;;2072809;28;20400;-75
2022/11/01 01:25:30;;;;;;;40.13;29.33;;;10.30;99.90;;;;;;2072616;28;20088;-74
2022/11/01 01:26:31;;;;;;;39.90;28.85;;;10.30;99.90;;;;;;2081125;28;20366;-75
2022/11/01 01:27:32;;;;;;;39.85;29.42;;;10.30;99.90;;;;;;2072677;28;20045;-75
2022/11/01 01:28:33;;;;;;;42.60;29.58;;;10.30;99.90;;;;;;2064848;28;20109;-74
2022/11/01 01:29:33;;;;;;;42.63;29.25;;;10.30;99.90;;;;;;2072267;28;20030;-75
2022/11/01 01:30:38;;;;;;;42.13;30.75;;;10.30;99.90;;;;;;2073078;28;20057;-76
2022/11/01 01:31:38;;;;;;;42.00;30.63;;;10.30;99.90;;;;;;2073128;28;20030;-75
2022/11/01 01:32:39;;;;;;;43.72;31.58;;;10.30;99.90;;;;;;2079968;28;20395;-75
2022/11/01 01:33:40;;;;;;;49.88;33.80;;;10.30;99.90;;;;;;2080513;28;20494;-77
2022/11/01 01:34:40;;;;;;;47.65;32.88;;;10.30;99.90;;;;;;2072588;28;20053;-75
2022/11/01 01:35:41;;;;;;;45.72;32.92;;;10.30;99.90;;;;;;2073153;28;20026;-74
2022/11/01 01:36:42;;;;;;;43.58;31.42;;;10.30;99.90;;;;;;2072952;28;20064;-74
2022/11/01 01:37:42;;;;;;;41.58;30.80;;;10.30;99.90;;;;;;2072631;28;20072;-76
2022/11/01 01:38:43;;;;;;;40.88;30.30;;;10.30;99.90;;;;;;2072584;28;20416;-74
2022/11/01 01:39:44;;;;;;;43.92;30.52;;;10.20;99.90;;;;;;2073242;28;20033;-76
2022/11/01 01:40:45;;;;;;;40.65;29.70;;;10.30;99.90;;;;;;2072035;28;20542;-75
2022/11/01 01:41:55;;;;;;;43.10;30.50;;;10.30;99.90;;;;;;2072370;28;20033;-75
2022/11/01 01:42:55;;;;;;;41.53;30.58;;;10.20;99.90;;;;;;2073038;28;20058;-77
2022/11/01 01:43:56;;;;;;;41.78;30.15;;;10.20;99.90;;;;;;2073229;28;20088;-76
2022/11/01 01:44:56;;;;;;;40.97;30.30;;;10.20;99.90;;;;;;2080529;28;20029;-76
2022/11/01 01:45:57;;;;;;;43.63;31.23;;;10.20;99.90;;;;;;2080512;28;20033;-76
2022/11/01 01:46:58;;;;;;;42.25;30.33;;;10.20;99.90;;;;;;2073004;28;20022;-75
2022/11/01 01:48:08;;;;;;;43.13;30.65;;;10.20;99.90;;;;;;2073156;28;20518;-76
2022/11/01 01:49:09;;;;;;;;;;;10.20;99.90;;;;;;2073348;28;20053;-75
2022/11/01 01:50:15;;;;;;;47.40;31.60;;;10.20;99.90;;;;;;2072384;28;20294;-75
2022/11/01 01:51:21;;;;;;;43.85;31.42;;;10.20;99.90;;;;;;2072255;28;20025;-74
2022/11/01 01:52:22;;;;;;;47.25;31.30;;;10.10;99.90;;;;;;2072832;28;20056;-74
2022/11/01 01:53:37;;;;;;;43.83;30.90;;;10.10;99.90;;;;;;2072688;28;20033;-74
2022/11/01 01:54:38;;;;;;;44.22;31.10;;;10.10;99.90;;;;;;2072849;28;20471;-74
2022/11/01 01:55:53;;;;;;;47.20;32.05;;;10.10;99.90;;;;;;2073909;28;20041;-76
2022/11/01 01:56:53;;;;;;;46.30;32.10;;;10.10;99.90;;;;;;2073165;28;20024;-75
2022/11/01 01:57:56;;;;;;;44.75;31.42;;;10.10;99.90;;;;;;2073147;28;20065;-76
2022/11/01 01:58:57;;;;;;;45.55;31.40;;;10.10;99.90;;;;;;2073101;28;20026;-75
2022/11/01 01:59:58;;;;;;;42.53;30.92;;;10.10;99.90;;;;;;2081049;28;20087;-76
2022/11/01 02:00:59;;;;;;;44.72;32.13;;;10.10;99.90;;;;;;2080883;28;20040;-76
2022/11/01 02:01:59;;;;;;;46.67;31.58;;;10.10;99.90;;;;;;2073662;28;20326;-76
2022/11/01 02:03:00;;;;;;;47.67;34.05;;;10.10;99.90;;;;;;2072638;28;20101;-76
2022/11/01 02:04:04;;;;;;;49.72;32.35;;;10.10;99.90;;;;;;2072757;28;20053;-75
2022/11/01 02:05:33;;;;;;;53.25;36.72;;;10.20;99.90;;;;;;2073389;28;20030;-76
2022/11/01 02:06:35;;;;;;;58.95;38.70;;;10.30;99.90;;;;;;2068129;28;20042;-75
2022/11/01 02:07:36;;;;;;;56.38;38.25;;;10.30;99.90;;;;;;2072146;28;20030;-76
2022/11/01 02:08:44;;;;;;;57.35;38.25;;;10.30;99.90;;;;;;2072709;28;20114;-75
2022/11/01 02:09:46;;;;;;;61.08;39.83;;;10.30;99.90;;;;;;2072952;28;20025;-75
2022/11/01 02:10:46;;;;;;;61.65;40.60;;;10.40;99.90;;;;;;2072356;28;20037;-75
2022/11/01 02:11:47;;;;;;;62.25;41.42;;;10.40;99.90;;;;;;2072733;28;20057;-75
2022/11/01 02:12:48;;;;;;;81.13;50.75;;;10.50;99.90;;;;;;2080214;28;20063;-75
2022/11/01 02:13:49;;;;;;;85.80;51.67;;;10.50;99.90;;;;;;2080198;28;20022;-76
2022/11/01 02:14:50;;;;;;;101.75;57.08;;;10.60;99.90;;;;;;2072503;28;20026;-75
2022/11/01 02:16:18;;;;;;;104.13;59.10;;;10.70;99.90;;;;;;2072579;28;20030;-75
2022/11/01 02:17:32;;;;;;;98.80;55.80;;;10.80;99.90;;;;;;2072477;28;20392;-75
2022/11/01 02:18:56;;;;;;;100.00;57.95;;;10.90;99.90;;;;;;2072577;28;20030;-76
2022/11/01 02:20:27;;;;;;;104.13;57.17;;;10.90;99.90;;;;;;2072440;28;20113;-75
2022/11/01 02:21:42;;;;;;;100.32;55.00;;;11.00;99.90;;;;;;2072702;28;20392;-76
2022/11/01 02:23:07;;;;;;;86.95;50.58;;;11.00;99.90;;;;;;2079847;28;20044;-75
2022/11/01 02:24:30;;;;;;;87.53;51.83;;;11.10;99.90;;;;;;2077193;28;20057;-76
2022/11/01 02:26:22;;;;;;;95.35;54.75;;;11.10;99.90;;;;;;2079841;28;20075;-76
2022/11/01 02:27:25;;;;;;;;;;;11.10;99.90;;;;;;2074339;28;20412;-75
2022/11/01 02:29:04;;;;;;;88.28;51.00;;;11.10;99.90;;;;;;2071910;28;19931;-75
2022/11/01 02:30:17;;;;;;;79.75;47.55;;;11.10;99.90;;;;;;2062624;28;20041;-74
2022/11/01 02:31:47;;;;;;;83.90;49.45;;;11.10;99.90;;;;;;2071898;28;20030;-76
2022/11/01 02:33:04;;;;;;;86.55;50.28;;;11.10;99.90;;;;;;2072411;28;20127;-75
2022/11/01 02:34:11;;;;;;;82.07;48.10;;;11.10;99.90;;;;;;2079973;28;20029;-75
2022/11/01 02:35:41;;;;;;;81.32;47.25;;;11.10;99.90;;;;;;2079450;28;20033;-75
2022/11/01 02:36:58;;;;;;;81.07;47.10;;;11.10;99.90;;;;;;2080371;28;20032;-76
2022/11/01 02:38:22;;;;;;;78.55;46.30;;;11.10;99.90;;;;;;2078077;28;20400;-76
2022/11/01 02:39:30;;;;;;;84.93;48.90;;;11.10;99.90;;;;;;2065458;28;20046;-76
2022/11/01 02:41:02;;;;;;;81.65;47.15;;;11.10;99.90;;;;;;2072635;28;20030;-76
2022/11/01 02:42:10;;;;;;;82.10;48.67;;;11.20;99.90;;;;;;2080369;28;20057;-76
2022/11/01 02:43:27;;;;;;;82.75;48.45;;;11.20;99.90;;;;;;2079412;28;20041;-76
2022/11/01 02:44:34;;;;;;;75.13;43.92;;;11.20;99.90;;;;;;2072562;28;20049;-76
2022/11/01 02:45:38;;;;;;;76.65;45.25;;;11.20;99.90;;;;;;2081138;28;20691;-76
2022/11/01 02:47:00;;;;;;;73.75;44.67;;;11.20;99.90;;;;;;2080549;28;20113;-76
2022/11/01 02:48:02;;;;;;;71.18;43.97;;;11.20;99.90;;;;;;2073619;28;20053;-76
2022/11/01 02:49:03;;;;;;;81.05;47.17;;;11.20;99.90;;;;;;2073727;28;20026;-76
2022/11/01 02:50:08;;;;;;;75.03;44.78;;;11.20;99.90;;;;;;2073585;28;20030;-75
2022/11/01 02:51:11;;;;;;;80.43;46.88;;;11.20;99.90;;;;;;2080883;28;20037;-75
2022/11/01 02:52:23;;;;;;;73.97;44.55;;;11.30;99.90;;;;;;2072950;28;20180;-75
2022/11/01 02:53:24;;;;;;;71.20;43.45;;;11.30;99.90;;;;;;2073355;28;20033;-75
2022/11/01 02:54:39;;;;;;;72.65;43.30;;;11.30;99.90;;;;;;2073615;28;20160;-75
2022/11/01 02:55:40;;;;;;;64.50;41.42;;;11.30;99.90;;;;;;2074238;28;20428;-75
2022/11/01 02:56:41;;;;;;;67.10;41.45;;;11.30;99.90;;;;;;2082304;28;20053;-75
2022/11/01 02:57:41;;;;;;;68.65;41.55;;;11.30;99.90;;;;;;2082818;28;20026;-75
2022/11/01 02:58:43;;;;;;;65.32;40.13;;;11.20;99.90;;;;;;2075366;28;20084;-75
2022/11/01 02:59:46;;;;;;;66.82;40.28;;;11.20;99.90;;;;;;2083182;28;20022;-75
2022/11/01 03:00:47;;;;;;;66.50;40.00;;;11.20;99.90;;;;;;2082124;28;20021;-75
2022/11/01 03:02:13;;;;;;;62.10;38.17;;;11.30;99.90;;;;;;2074613;28;20637;-75
2022/11/01 03:03:25;;;;;;;62.13;38.50;;;11.30;99.90;;;;;;2074216;28;20026;-75
2022/11/01 03:04:25;;;;;;;60.92;37.63;;;11.30;99.90;;;;;;2074384;28;20037;-77
2022/11/01 03:05:46;;;;;;;62.67;38.88;;;11.30;99.90;;;;;;2074676;28;20062;-76
2022/11/01 03:06:52;;;;;;;62.20;37.97;;;11.30;99.90;;;;;;2073953;28;20041;-75
2022/11/01 03:07:58;;;;;;;60.53;37.10;;;11.30;99.90;;;;;;2072766;28;20026;-75
2022/11/01 03:09:03;;;;;;;55.40;35.33;;;11.30;99.90;;;;;;2073104;28;20029;-75
2022/11/01 03:10:04;;;;;;;59.65;36.55;;;11.30;99.90;;;;;;2073753;28;20090;-76
2022/11/01 03:11:07;;;;;;;58.40;36.05;;;11.30;99.90;;;;;;2072398;28;20022;-76
2022/11/01 03:12:24;;;;;;;59.17;35.83;;;11.30;99.90;;;;;;2072913;28;20053;-76
2022/11/01 03:13:50;;;;;;;54.72;34.97;;;11.30;99.90;;;;;;2073587;28;20040;-76
2022/11/01 03:15:32;;;;;;;55.28;34.25;;;11.30;99.90;;;;;;2073586;28;20034;-76
2022/11/01 03:16:45;;;;;;;50.53;33.58;;;11.20;99.90;;;;;;2048018;29;20083;-76
2022/11/01 03:17:58;;;;;;;52.05;33.03;;;11.20;99.90;;;;;;2049948;28;20057;-76
2022/11/01 03:19:17;;;;;;;52.25;32.60;;;11.20;99.90;;;;;;2055667;28;20048;-76
2022/11/01 03:27:38;;;;;;;47.08;30.17;;;11.20;99.90;;;;;;2055922;28;20038;-76
2022/11/01 03:28:44;;;;;;;45.42;29.77;;;11.30;99.90;;;;;;2064559;28;20049;-76
2022/11/01 03:29:55;;;;;;;47.35;29.95;;;11.20;99.90;;;;;;2072716;28;20030;-76
2022/11/01 03:31:08;;;;;;;46.28;30.30;;;11.20;99.90;;;;;;2072973;28;20030;-76
2022/11/01 03:32:09;;;;;;;45.83;29.73;;;11.20;99.90;;;;;;2072337;28;20027;-76
2022/11/01 03:33:14;;;;;;;43.75;29.33;;;11.20;99.90;;;;;;2080909;28;20400;-76
2022/11/01 03:34:18;;;;;;;39.75;27.98;;;11.20;99.90;;;;;;2080609;28;20640;-75
2022/11/01 03:35:23;;;;;;;44.50;28.45;;;11.20;99.90;;;;;;2072003;28;20021;-75
2022/11/01 03:36:30;;;;;;;39.65;27.83;;;11.20;99.90;;;;;;2072737;28;20033;-77
2022/11/01 03:37:37;;;;;;;43.92;28.08;;;11.20;99.90;;;;;;2071817;28;20033;-76
2022/11/01 03:38:42;;;;;;;43.55;29.02;;;11.20;99.90;;;;;;2072051;28;20022;-75
2022/11/01 03:39:47;;;;;;;43.45;29.75;;;11.20;99.90;;;;;;2072916;28;20028;-75
2022/11/01 03:40:52;;;;;;;45.30;29.30;;;11.20;99.90;;;;;;2073048;28;20030;-76
2022/11/01 03:41:59;;;;;;;44.78;29.23;;;11.20;99.90;;;;;;2072518;28;20022;-77
2022/11/01 03:43:04;;;;;;;43.40;28.67;;;11.20;99.90;;;;;;2080234;28;20643;-76
2022/11/01 03:44:06;;;;;;;42.78;28.80;;;11.20;99.90;;;;;;2079607;28;20033;-76
2022/11/01 03:45:11;;;;;;;45.05;29.02;;;11.20;99.90;;;;;;2072328;28;20105;-75
2022/11/01 03:46:14;;;;;;;41.78;28.77;;;11.20;99.90;;;;;;2080351;28;20055;-75
2022/11/01 03:47:15;;;;;;;41.55;27.70;;;11.20;99.90;;;;;;2079348;28;20065;-75
2022/11/01 03:48:15;;;;;;;43.03;28.38;;;11.20;99.90;;;;;;2071834;28;20705;-75
2022/11/01 03:49:17;;;;;;;41.03;28.40;;;11.20;99.90;;;;;;2072524;28;20100;-75
2022/11/01 03:50:24;;;;;;;39.45;27.77;;;11.20;99.90;;;;;;2080115;28;20103;-75
2022/11/01 03:51:25;;;;;;;42.28;27.65;;;11.20;99.90;;;;;;2079039;28;20046;-76
2022/11/01 03:52:25;;;;;;;40.58;27.17;;;11.20;99.90;;;;;;2071975;28;20029;-76
2022/11/01 03:53:26;;;;;;;38.30;27.10;;;11.20;99.90;;;;;;2072849;28;20030;-76
2022/11/01 03:54:28;;;;;;;40.75;27.58;;;11.20;99.90;;;;;;2072544;28;20030;-75
2022/11/01 03:55:28;;;;;;;39.45;27.30;;;11.30;99.90;;;;;;2072178;28;20054;-75
2022/11/01 03:56:29;;;;;;;39.78;26.75;;;11.20;99.90;;;;;;2066300;28;20034;-75
2022/11/01 03:57:29;;;;;;;40.47;26.67;;;11.20;99.90;;;;;;2075407;28;20367;-76
2022/11/01 03:58:43;;;;;;;36.47;25.65;;;11.20;99.90;;;;;;2075492;28;20053;-76
2022/11/01 03:59:44;;;;;;;37.40;25.52;;;11.20;99.90;;;;;;2076204;28;20125;-76
2022/11/01 04:00:45;;;;;;;35.50;25.13;;;11.20;99.90;;;;;;2075689;28;20033;-75
2022/11/01 04:01:46;;;;;;;38.42;26.15;;;11.20;99.90;;;;;;2083199;28;20022;-76
2022/11/01 04:02:51;;;;;;;41.58;27.08;;;11.20;99.90;;;;;;2083465;28;20033;-77
2022/11/01 04:03:51;;;;;;;37.53;25.73;;;11.20;99.90;;;;;;2082607;28;20053;-76
2022/11/01 04:04:52;;;;;;;38.67;25.75;;;11.20;99.90;;;;;;2075036;28;20033;-76
2022/11/01 04:05:53;;;;;;;38.67;26.63;;;11.20;99.90;;;;;;2074911;28;20045;-75
2022/11/01 04:06:53;;;;;;;37.78;25.27;;;11.10;99.90;;;;;;2074923;28;20034;-75
2022/11/01 04:07:55;;;;;;;37.22;25.67;;;11.10;99.90;;;;;;2075396;28;20496;-75
2022/11/01 04:08:55;;;;;;;36.22;25.20;;;11.10;99.90;;;;;;2082228;28;20021;-75
2022/11/01 04:09:56;;;;;;;37.60;25.02;;;11.10;99.90;;;;;;2082481;28;20471;-75
2022/11/01 04:10:57;;;;;;;37.55;25.40;;;11.10;99.90;;;;;;2074366;28;20052;-77
2022/11/01 04:11:57;;;;;;;34.42;24.20;;;11.10;99.90;;;;;;2066269;28;20030;-75
2022/11/01 04:12:59;;;;;;;33.88;24.25;;;11.10;99.90;;;;;;2073910;28;20037;-76
2022/11/01 04:20:48;;;;;;;38.70;25.08;;;10.90;99.90;;;;;;2081839;28;20021;-75
2022/11/01 04:21:49;;;;;;;35.45;24.80;;;10.90;99.90;;;;;;2076893;28;20021;-76
2022/11/01 04:22:49;;;;;;;36.22;24.50;;;10.90;99.90;;;;;;2076281;28;20444;-76
2022/11/01 04:23:50;;;;;;;35.80;25.27;;;10.90;99.90;;;;;;2082654;28;20057;-76
2022/11/01 04:24:51;;;;;;;37.42;25.63;;;10.90;99.90;;;;;;2081886;28;20427;-76
2022/11/01 04:25:52;;;;;;;34.90;24.50;;;10.90;99.90;;;;;;2074795;28;20105;-76
2022/11/01 04:26:52;;;;;;;39.30;25.48;;;10.90;99.90;;;;;;2074289;28;20022;-76
2022/11/01 04:27:55;;;;;;;37.45;24.70;;;10.90;99.90;;;;;;2082150;28;20028;-75
2022/11/01 04:28:56;;;;;;;40.33;25.60;;;10.90;99.90;;;;;;2081945;28;20537;-75
2022/11/01 04:29:56;;;;;;;40.10;25.55;;;10.90;99.90;;;;;;2082041;28;20042;-74
2022/11/01 04:30:57;;;;;;;35.15;23.80;;;10.90;99.90;;;;;;2082562;28;20022;-76
2022/11/01 04:31:58;;;;;;;35.85;24.48;;;10.90;99.90;;;;;;2082201;28;20029;-75
2022/11/01 04:32:58;;;;;;;34.50;23.02;;;10.90;99.90;;;;;;2082011;28;20039;-75
2022/11/01 04:34:00;;;;;;;31.83;22.80;;;10.90;99.90;;;;;;2074057;28;20564;-76
2022/11/01 04:35:01;;;;;;;33.70;22.73;;;10.90;99.90;;;;;;2073827;28;20042;-75
2022/11/01 04:36:05;;;;;;;33.38;23.02;;;10.80;99.90;;;;;;2074766;28;20033;-75
2022/11/01 04:37:06;;;;;;;34.70;23.73;;;10.80;99.90;;;;;;2074515;28;20030;-76
2022/11/01 04:38:09;;;;;;;36.60;24.45;;;10.80;99.90;;;;;;2074413;28;20025;-75
2022/11/01 04:39:10;;;;;;;35.28;24.33;;;10.80;99.90;;;;;;2074900;28;20109;-75
2022/11/01 04:40:12;;;;;;;36.10;24.15;;;10.80;99.90;;;;;;2074820;28;20205;-75
2022/11/01 04:41:16;;;;;;;35.17;23.98;;;10.80;99.90;;;;;;2074456;28;20448;-75
2022/11/01 04:42:16;;;;;;;37.58;23.02;;;10.80;99.90;;;;;;2074963;28;20018;-76
2022/11/01 04:43:17;;;;;;;35.72;23.70;;;10.80;99.90;;;;;;2073994;28;20120;-76
2022/11/01 04:44:18;;;;;;;36.63;23.42;;;10.80;99.90;;;;;;2066064;28;20068;-75
2022/11/01 04:45:18;;;;;;;36.25;23.70;;;10.80;99.90;;;;;;2073935;28;20037;-75
2022/11/01 04:46:22;;;;;;;36.00;24.48;;;10.80;99.90;;;;;;2074884;28;20716;-76
2022/11/01 04:47:23;;;;;;;33.72;23.67;;;10.80;99.90;;;;;;2074677;28;20451;-75
2022/11/01 04:48:25;;;;;;;32.17;21.88;;;10.80;99.90;;;;;;2074207;28;20061;-75
2022/11/01 04:49:25;;;;;;;32.33;22.40;;;10.80;99.90;;;;;;2066314;28;20036;-76
2022/11/01 04:50:26;;;;;;;32.50;21.80;;;10.80;99.90;;;;;;2073977;28;20033;-76
2022/11/01 04:51:27;;;;;;;37.67;23.30;;;10.80;99.90;;;;;;2075017;28;20038;-77
2022/11/01 04:52:28;;;;;;;32.50;22.80;;;10.80;99.90;;;;;;2082662;28;20033;-76
2022/11/01 04:53:28;;;;;;;31.50;21.73;;;10.80;99.90;;;;;;2082196;28;20029;-75
2022/11/01 04:54:32;;;;;;;30.17;22.08;;;10.70;99.90;;;;;;2081709;28;20029;-75
2022/11/01 04:55:33;;;;;;;34.13;22.38;;;10.70;99.90;;;;;;2074172;28;20037;-75
2022/11/01 04:56:34;;;;;;;33.58;22.80;;;10.70;99.90;;;;;;2073967;28;20026;-76
2022/11/01 04:57:39;;;;;;;34.03;21.83;;;10.70;99.90;;;;;;2074084;28;20036;-76
2022/11/01 04:58:39;;;;;;;30.98;21.58;;;10.70;99.90;;;;;;2066987;28;20072;-76
2022/11/01 04:59:40;;;;;;;32.60;21.45;;;10.60;99.90;;;;;;2074176;28;20088;-76
2022/11/01 05:00:42;;;;;;;36.60;23.63;;;10.60;99.90;;;;;;2074559;28;20437;-75
2022/11/01 05:01:43;;;;;;;32.97;22.80;;;10.60;99.90;;;;;;2074659;28;20880;-76
2022/11/01 05:02:44;;;;;;;31.63;22.33;;;10.60;99.90;;;;;;2074712;28;20029;-76
2022/11/01 05:03:47;;;;;;;30.55;20.95;;;10.60;99.90;;;;;;2074772;28;20761;-76
2022/11/01 05:04:48;;;;;;;33.17;22.48;;;10.60;99.90;;;;;;2082032;28;20533;-75
2022/11/01 05:05:49;;;;;;;33.22;22.52;;;10.60;99.90;;;;;;2082511;28;20084;-74
2022/11/01 05:06:49;;;;;;;35.63;23.00;;;10.60;99.90;;;;;;2074100;28;20044;-75
2022/11/01 05:07:50;;;;;;;35.40;22.88;;;10.50;99.90;;;;;;2071960;28;20481;-77
2022/11/01 05:08:53;;;;;;;31.33;21.65;;;10.50;99.90;;;;;;2073630;28;20041;-76
2022/11/01 05:09:53;;;;;;;31.92;20.95;;;10.50;99.90;;;;;;2080871;28;20144;-78
2022/11/01 05:10:55;;;;;;;33.42;23.13;;;10.50;99.90;;;;;;2072805;28;20452;-77
2022/11/01 05:11:55;;;;;;;33.03;22.38;;;10.50;99.90;;;;;;2064990;28;20461;-76
2022/11/01 05:12:56;;;;;;;33.72;23.55;;;10.50;99.90;;;;;;2072548;28;20104;-75
2022/11/01 05:13:57;;;;;;;36.35;23.63;;;10.50;99.90;;;;;;2073325;28;20076;-76
2022/11/01 05:14:57;;;;;;;31.45;22.05;;;10.50;99.90;;;;;;2080565;28;20018;-76
2022/11/01 05:16:01;;;;;;;34.00;22.20;;;10.40;99.90;;;;;;2081563;28;20048;-76
2022/11/01 05:17:02;;;;;;;36.08;24.13;;;10.40;99.90;;;;;;2073458;28;20030;-76
2022/11/01 05:18:03;;;;;;;35.88;24.00;;;10.40;99.90;;;;;;2074941;28;20054;-77
2022/11/01 05:19:04;;;;;;;34.33;22.38;;;10.40;99.90;;;;;;2082067;28;20018;-74
2022/11/01 05:20:06;;;;;;;32.97;23.67;;;10.40;99.90;;;;;;2080680;28;20033;-75
2022/11/01 05:21:06;;;;;;;40.28;25.55;;;10.40;99.90;;;;;;2080809;28;20105;-75
2022/11/01 05:22:07;;;;;;;34.35;23.75;;;10.40;99.90;;;;;;2080650;28;20036;-74
2022/11/01 05:23:08;;;;;;;40.42;25.67;;;10.50;99.90;;;;;;2073495;28;20566;-74
2022/11/01 05:24:09;;;;;;;36.97;23.88;;;10.40;99.90;;;;;;2072764;28;20040;-74
2022/11/01 05:25:09;;;;;;;32.67;22.10;;;10.40;99.90;;;;;;2080517;28;20067;-74
2022/11/01 05:26:10;;;;;;;34.53;23.58;;;10.40;99.90;;;;;;2080838;28;20128;-74
2022/11/01 05:27:11;;;;;;;32.95;22.60;;;10.40;99.90;;;;;;2080599;28;20033;-75
2022/11/01 05:28:13;;;;;;;35.17;23.05;;;10.40;99.90;;;;;;2080921;28;20108;-74
2022/11/01 05:29:13;;;;;;;31.95;22.27;;;10.40;99.90;;;;;;2072472;28;20030;-75
2022/11/01 05:30:14;;;;;;;33.35;22.67;;;10.40;99.90;;;;;;2073313;28;20037;-75
2022/11/01 05:31:15;;;;;;;35.28;23.48;;;10.40;99.90;;;;;;2074123;28;20044;-74
2022/11/01 05:32:16;;;;;;;35.28;23.55;;;10.40;99.90;;;;;;2073435;28;20022;-76
2022/11/01 05:33:17;;;;;;;32.67;22.15;;;10.40;99.90;;;;;;2080952;28;20029;-75
2022/11/01 05:34:18;;;;;;;33.15;22.80;;;10.40;99.90;;;;;;2081053;28;20021;-75
2022/11/01 05:35:18;;;;;;;36.60;25.70;;;10.40;99.90;;;;;;2073391;28;20029;-75
2022/11/01 05:36:19;;;;;;;39.70;27.95;;;10.40;99.90;;;;;;2080760;28;20582;-76
2022/11/01 05:37:20;;;;;;;37.50;25.85;;;10.40;99.90;;;;;;2072348;28;20022;-75
2022/11/01 05:38:20;;;;;;;37.60;24.95;;;10.40;99.90;;;;;;2064931;28;20082;-75
2022/11/01 05:39:21;;;;;;;36.13;24.67;;;10.40;99.90;;;;;;2072337;28;20064;-76